BAW76 LWSK-LTFJ
Flight info
| Callsign | BAW76 |
|---|---|
| Flight time | 1h 10m |
| Altitude | 37000 |
| Route | RUGAS2D RUGAS UN128 PEREN UN644 DIGTI UT162 DRAMO DRAMO1G |
| Aircraft | A319/M-SDE3FGIJ1KRWXY/LB1 |
Departure
| Time | 2026-05-01 10:14 |
|---|---|
| Airport | Skopje International Airport (LWSK) |
Arrival
| Time | 2026-05-01 11:24 |
|---|---|
| Airport | Istanbul Sabiha Gökçen International Airport (LTFJ) |
| Time | Latitude | Longitude | Altitude | Speed | Heading |
|---|---|---|---|---|---|
| 2026-05-01 09:39 | 41.96074 | 21.62590 | 784 ft | 0 kts | 73° |
| 2026-05-01 10:03 | 41.96071 | 21.62575 | 783 ft | 4 kts | 72° |
| 2026-05-01 10:03 | 41.96065 | 21.62541 | 783 ft | 4 kts | 100° |
| 2026-05-01 10:03 | 41.96070 | 21.62526 | 783 ft | 0 kts | 165° |
| 2026-05-01 10:07 | 41.96068 | 21.62527 | 783 ft | 1 kts | 165° |
| 2026-05-01 10:07 | 41.96050 | 21.62531 | 783 ft | 4 kts | 176° |
| 2026-05-01 10:08 | 41.95996 | 21.62479 | 783 ft | 7 kts | 189° |
| 2026-05-01 10:08 | 41.95942 | 21.62493 | 783 ft | 9 kts | 165° |
| 2026-05-01 10:08 | 41.95870 | 21.62518 | 782 ft | 12 kts | 166° |
| 2026-05-01 10:09 | 41.95780 | 21.62550 | 782 ft | 15 kts | 164° |
| 2026-05-01 10:09 | 41.95672 | 21.62588 | 781 ft | 17 kts | 165° |
| 2026-05-01 10:09 | 41.95547 | 21.62631 | 780 ft | 20 kts | 167° |
| 2026-05-01 10:09 | 41.95405 | 21.62679 | 779 ft | 22 kts | 165° |
| 2026-05-01 10:10 | 41.95287 | 21.62720 | 779 ft | 17 kts | 166° |
| 2026-05-01 10:10 | 41.95187 | 21.62750 | 778 ft | 12 kts | 180° |
| 2026-05-01 10:10 | 41.95119 | 21.62594 | 779 ft | 10 kts | 257° |
| 2026-05-01 10:11 | 41.95079 | 21.62524 | 780 ft | 11 kts | 186° |
| 2026-05-01 10:11 | 41.94996 | 21.62553 | 779 ft | 14 kts | 163° |
| 2026-05-01 10:11 | 41.94892 | 21.62589 | 778 ft | 17 kts | 166° |
| 2026-05-01 10:11 | 41.94803 | 21.62649 | 778 ft | 13 kts | 132° |
| 2026-05-01 10:12 | 41.94721 | 21.62720 | 776 ft | 11 kts | 166° |
| 2026-05-01 10:12 | 41.94669 | 21.62679 | 775 ft | 9 kts | 265° |
| 2026-05-01 10:12 | 41.94697 | 21.62651 | 776 ft | 0 kts | 343° |
| 2026-05-01 10:13 | 41.94804 | 21.62611 | 778 ft | 43 kts | 345° |
| 2026-05-01 10:13 | 41.95291 | 21.62442 | 780 ft | 101 kts | 345° |
| 2026-05-01 10:13 | 41.96149 | 21.62147 | 793 ft | 151 kts | 346° |
| 2026-05-01 10:14 | 41.98140 | 21.61448 | 1993 ft | 150 kts | 347° |
| 2026-05-01 10:14 | 41.99161 | 21.61110 | 2611 ft | 152 kts | 347° |
| 2026-05-01 10:14 | 42.00254 | 21.60732 | 2979 ft | 171 kts | 345° |
| 2026-05-01 10:14 | 42.01477 | 21.60498 | 3452 ft | 184 kts | 5° |
| 2026-05-01 10:15 | 42.02726 | 21.61138 | 3821 ft | 208 kts | 36° |
| 2026-05-01 10:15 | 42.03713 | 21.62692 | 4295 ft | 230 kts | 62° |
| 2026-05-01 10:15 | 42.04119 | 21.64848 | 4959 ft | 247 kts | 87° |
| 2026-05-01 10:15 | 42.03949 | 21.67186 | 5818 ft | 255 kts | 98° |
| 2026-05-01 10:16 | 42.03425 | 21.69467 | 6763 ft | 259 kts | 120° |
| 2026-05-01 10:16 | 42.02067 | 21.71074 | 7619 ft | 269 kts | 157° |
| 2026-05-01 10:16 | 41.98391 | 21.70606 | 9477 ft | 274 kts | 196° |
| 2026-05-01 10:17 | 41.96572 | 21.69864 | 10441 ft | 274 kts | 197° |
| 2026-05-01 10:17 | 41.92819 | 21.68351 | 11959 ft | 288 kts | 196° |
| 2026-05-01 10:17 | 41.90860 | 21.67730 | 12770 ft | 290 kts | 185° |
| 2026-05-01 10:18 | 41.86944 | 21.69446 | 13619 ft | 326 kts | 137° |
| 2026-05-01 10:18 | 41.85495 | 21.71906 | 13838 ft | 346 kts | 123° |
| 2026-05-01 10:18 | 41.84179 | 21.74667 | 14412 ft | 355 kts | 122° |
| 2026-05-01 10:19 | 41.82876 | 21.77499 | 15073 ft | 359 kts | 121° |
| 2026-05-01 10:19 | 41.81556 | 21.80367 | 15728 ft | 363 kts | 121° |
| 2026-05-01 10:19 | 41.80206 | 21.83254 | 16378 ft | 368 kts | 122° |
| 2026-05-01 10:20 | 41.77411 | 21.89078 | 17622 ft | 376 kts | 123° |
| 2026-05-01 10:20 | 41.75975 | 21.92022 | 18226 ft | 380 kts | 123° |
| 2026-05-01 10:20 | 41.74517 | 21.94993 | 18833 ft | 383 kts | 123° |
| 2026-05-01 10:20 | 41.73043 | 21.97990 | 19409 ft | 388 kts | 123° |
| 2026-05-01 10:21 | 41.71556 | 22.01018 | 19994 ft | 391 kts | 123° |
| 2026-05-01 10:21 | 41.68561 | 22.07136 | 21116 ft | 400 kts | 123° |
| 2026-05-01 10:21 | 41.67035 | 22.10261 | 21672 ft | 403 kts | 123° |
| 2026-05-01 10:22 | 41.63945 | 22.16600 | 22708 ft | 411 kts | 123° |
| 2026-05-01 10:22 | 41.60791 | 22.23036 | 23665 ft | 417 kts | 124° |
| 2026-05-01 10:23 | 41.59191 | 22.26287 | 24104 ft | 421 kts | 124° |
| 2026-05-01 10:23 | 41.55938 | 22.32868 | 24985 ft | 428 kts | 124° |
| 2026-05-01 10:23 | 41.54294 | 22.36195 | 25421 ft | 431 kts | 124° |
| 2026-05-01 10:24 | 41.50967 | 22.42925 | 26241 ft | 438 kts | 124° |
| 2026-05-01 10:24 | 41.47585 | 22.49743 | 27039 ft | 444 kts | 124° |
| 2026-05-01 10:25 | 41.44159 | 22.56654 | 27798 ft | 450 kts | 125° |
| 2026-05-01 10:25 | 41.40671 | 22.63663 | 28521 ft | 457 kts | 125° |
| 2026-05-01 10:26 | 41.38907 | 22.67208 | 28872 ft | 460 kts | 125° |
| 2026-05-01 10:26 | 41.37131 | 22.70767 | 29206 ft | 463 kts | 126° |
| 2026-05-01 10:26 | 41.33317 | 22.77722 | 29831 ft | 467 kts | 135° |
| 2026-05-01 10:27 | 41.28321 | 22.83170 | 30440 ft | 466 kts | 150° |
| 2026-05-01 10:27 | 41.22855 | 22.87896 | 31014 ft | 471 kts | 150° |
| 2026-05-01 10:28 | 41.20096 | 22.90283 | 31275 ft | 474 kts | 150° |
| 2026-05-01 10:28 | 41.14549 | 22.95094 | 31919 ft | 477 kts | 151° |
| 2026-05-01 10:28 | 41.11831 | 22.97640 | 32267 ft | 481 kts | 144° |
| 2026-05-01 10:29 | 41.07299 | 23.04232 | 32955 ft | 490 kts | 127° |
| 2026-05-01 10:29 | 41.05407 | 23.07992 | 33295 ft | 490 kts | 127° |
| 2026-05-01 10:30 | 41.01596 | 23.15495 | 33962 ft | 491 kts | 127° |
| 2026-05-01 10:30 | 40.97760 | 23.22982 | 34635 ft | 492 kts | 127° |
| 2026-05-01 10:31 | 40.93916 | 23.30485 | 35276 ft | 493 kts | 127° |
| 2026-05-01 10:31 | 40.90076 | 23.37989 | 35903 ft | 493 kts | 127° |
| 2026-05-01 10:32 | 40.86230 | 23.45513 | 36465 ft | 494 kts | 127° |
| 2026-05-01 10:32 | 40.84301 | 23.49272 | 36727 ft | 495 kts | 127° |
| 2026-05-01 10:32 | 40.80437 | 23.56769 | 37207 ft | 492 kts | 127° |
| 2026-05-01 10:33 | 40.76638 | 23.64131 | 37234 ft | 487 kts | 128° |
| 2026-05-01 10:34 | 40.70911 | 23.75185 | 37241 ft | 487 kts | 128° |
| 2026-05-01 10:34 | 40.67087 | 23.82549 | 37230 ft | 487 kts | 128° |
| 2026-05-01 10:35 | 40.63464 | 23.90098 | 37232 ft | 491 kts | 117° |
| 2026-05-01 10:35 | 40.62278 | 23.94324 | 37227 ft | 494 kts | 106° |
| 2026-05-01 10:35 | 40.61677 | 23.98771 | 37222 ft | 495 kts | 95° |
| 2026-05-01 10:35 | 40.61676 | 24.03292 | 37216 ft | 495 kts | 83° |
| 2026-05-01 10:36 | 40.63271 | 24.12058 | 37210 ft | 493 kts | 71° |
| 2026-05-01 10:36 | 40.64291 | 24.16372 | 37210 ft | 494 kts | 71° |
| 2026-05-01 10:37 | 40.66313 | 24.25011 | 37207 ft | 493 kts | 71° |
| 2026-05-01 10:37 | 40.69301 | 24.37926 | 37208 ft | 493 kts | 71° |
| 2026-05-01 10:38 | 40.71303 | 24.46575 | 37209 ft | 493 kts | 71° |
| 2026-05-01 10:38 | 40.73300 | 24.55233 | 37212 ft | 494 kts | 71° |
| 2026-05-01 10:39 | 40.74967 | 24.62488 | 37219 ft | 493 kts | 71° |
| 2026-05-01 10:39 | 40.76945 | 24.71141 | 37219 ft | 492 kts | 72° |
| 2026-05-01 10:40 | 40.78925 | 24.79787 | 37221 ft | 492 kts | 72° |
| 2026-05-01 10:40 | 40.80765 | 24.87829 | 37224 ft | 492 kts | 72° |
| 2026-05-01 10:41 | 40.82717 | 24.96417 | 37224 ft | 492 kts | 72° |
| 2026-05-01 10:42 | 40.85630 | 25.09398 | 37218 ft | 491 kts | 72° |
| 2026-05-01 10:42 | 40.87572 | 25.18043 | 37221 ft | 491 kts | 72° |
| 2026-05-01 10:43 | 40.89513 | 25.26692 | 37224 ft | 491 kts | 72° |
| 2026-05-01 10:43 | 40.91439 | 25.35352 | 37223 ft | 491 kts | 72° |
| 2026-05-01 10:44 | 40.93359 | 25.44014 | 37228 ft | 491 kts | 72° |
| 2026-05-01 10:44 | 40.95277 | 25.52684 | 37237 ft | 491 kts | 72° |
| 2026-05-01 10:45 | 40.97192 | 25.61347 | 37235 ft | 491 kts | 72° |
| 2026-05-01 10:45 | 40.99101 | 25.70017 | 37245 ft | 491 kts | 73° |
| 2026-05-01 10:46 | 41.01004 | 25.78694 | 37246 ft | 491 kts | 73° |
| 2026-05-01 10:46 | 41.02900 | 25.87368 | 37244 ft | 490 kts | 73° |
| 2026-05-01 10:47 | 41.04780 | 25.96045 | 37245 ft | 490 kts | 73° |
| 2026-05-01 10:47 | 41.06655 | 26.04723 | 37248 ft | 490 kts | 73° |
| 2026-05-01 10:48 | 41.08521 | 26.13406 | 37249 ft | 490 kts | 73° |
| 2026-05-01 10:48 | 41.10381 | 26.22088 | 37247 ft | 489 kts | 73° |
| 2026-05-01 10:49 | 41.11275 | 26.30990 | 37246 ft | 487 kts | 93° |
| 2026-05-01 10:49 | 41.10100 | 26.39753 | 37245 ft | 482 kts | 112° |
| 2026-05-01 10:50 | 41.07574 | 26.47947 | 37235 ft | 480 kts | 116° |
| 2026-05-01 10:50 | 41.05016 | 26.56121 | 37230 ft | 481 kts | 113° |
| 2026-05-01 10:51 | 41.03607 | 26.64812 | 37229 ft | 487 kts | 94° |
| 2026-05-01 10:51 | 41.03714 | 26.73789 | 37227 ft | 488 kts | 89° |
| 2026-05-01 10:52 | 41.03885 | 26.82780 | 37225 ft | 489 kts | 90° |
| 2026-05-01 10:52 | 41.03957 | 26.87318 | 36786 ft | 498 kts | 90° |
| 2026-05-01 10:52 | 41.04024 | 26.91963 | 35753 ft | 509 kts | 91° |
| 2026-05-01 10:52 | 41.04065 | 26.96663 | 34981 ft | 512 kts | 91° |
| 2026-05-01 10:53 | 41.04080 | 27.01394 | 34121 ft | 515 kts | 92° |
| 2026-05-01 10:53 | 41.04078 | 27.06134 | 33517 ft | 512 kts | 92° |
| 2026-05-01 10:53 | 41.04074 | 27.10823 | 32994 ft | 507 kts | 92° |
| 2026-05-01 10:53 | 41.04072 | 27.15475 | 32316 ft | 505 kts | 92° |
| 2026-05-01 10:54 | 41.04075 | 27.20130 | 31479 ft | 506 kts | 93° |
| 2026-05-01 10:54 | 41.04082 | 27.24793 | 30731 ft | 505 kts | 93° |
| 2026-05-01 10:54 | 41.04091 | 27.29412 | 30021 ft | 499 kts | 93° |
| 2026-05-01 10:54 | 41.04096 | 27.33976 | 29266 ft | 492 kts | 93° |
| 2026-05-01 10:55 | 41.04095 | 27.38458 | 28720 ft | 481 kts | 93° |
| 2026-05-01 10:55 | 41.04092 | 27.42782 | 28166 ft | 471 kts | 93° |
| 2026-05-01 10:55 | 41.04098 | 27.47075 | 27615 ft | 462 kts | 91° |
| 2026-05-01 10:55 | 41.04414 | 27.51279 | 27079 ft | 456 kts | 82° |
| 2026-05-01 10:56 | 41.05178 | 27.55352 | 26563 ft | 454 kts | 75° |
| 2026-05-01 10:56 | 41.06051 | 27.59362 | 26045 ft | 452 kts | 75° |
| 2026-05-01 10:56 | 41.06912 | 27.63355 | 25527 ft | 449 kts | 75° |
| 2026-05-01 10:56 | 41.07756 | 27.67316 | 25018 ft | 445 kts | 76° |
| 2026-05-01 10:57 | 41.08591 | 27.71252 | 24513 ft | 442 kts | 75° |
| 2026-05-01 10:57 | 41.09421 | 27.75160 | 24007 ft | 439 kts | 75° |
| 2026-05-01 10:57 | 41.10246 | 27.79048 | 23506 ft | 437 kts | 75° |
| 2026-05-01 10:57 | 41.11057 | 27.82918 | 23006 ft | 434 kts | 77° |
| 2026-05-01 10:58 | 41.11517 | 27.86844 | 22529 ft | 429 kts | 89° |
| 2026-05-01 10:58 | 41.11443 | 27.90754 | 22051 ft | 422 kts | 100° |
| 2026-05-01 10:58 | 41.10866 | 27.94512 | 21538 ft | 411 kts | 110° |
| 2026-05-01 10:58 | 41.09891 | 27.98027 | 21057 ft | 404 kts | 115° |
| 2026-05-01 10:59 | 41.08869 | 28.01483 | 20588 ft | 401 kts | 115° |
| 2026-05-01 10:59 | 41.07857 | 28.04918 | 20120 ft | 398 kts | 115° |
| 2026-05-01 10:59 | 41.06858 | 28.08323 | 19655 ft | 395 kts | 115° |
| 2026-05-01 10:59 | 41.05869 | 28.11665 | 19470 ft | 382 kts | 117° |
| 2026-05-01 11:00 | 41.04586 | 28.14602 | 19315 ft | 357 kts | 133° |
| 2026-05-01 11:00 | 41.02911 | 28.16898 | 18946 ft | 340 kts | 147° |
| 2026-05-01 11:00 | 41.00946 | 28.18515 | 18703 ft | 327 kts | 161° |
| 2026-05-01 11:00 | 40.98824 | 28.19482 | 18433 ft | 319 kts | 173° |
| 2026-05-01 11:01 | 40.96656 | 28.20050 | 18085 ft | 317 kts | 174° |
| 2026-05-01 11:01 | 40.94495 | 28.20606 | 17731 ft | 316 kts | 174° |
| 2026-05-01 11:01 | 40.92343 | 28.21160 | 17378 ft | 314 kts | 174° |
| 2026-05-01 11:01 | 40.90201 | 28.21716 | 17029 ft | 313 kts | 174° |
| 2026-05-01 11:02 | 40.88064 | 28.22271 | 16676 ft | 312 kts | 174° |
| 2026-05-01 11:02 | 40.85935 | 28.22824 | 16324 ft | 311 kts | 174° |
| 2026-05-01 11:02 | 40.83814 | 28.23378 | 15966 ft | 310 kts | 174° |
| 2026-05-01 11:02 | 40.81701 | 28.23929 | 15621 ft | 309 kts | 173° |
| 2026-05-01 11:03 | 40.79594 | 28.24478 | 15274 ft | 308 kts | 173° |
| 2026-05-01 11:03 | 40.77535 | 28.25315 | 14924 ft | 312 kts | 160° |
| 2026-05-01 11:03 | 40.75591 | 28.26605 | 14564 ft | 313 kts | 156° |
| 2026-05-01 11:03 | 40.73660 | 28.27924 | 14206 ft | 312 kts | 156° |
| 2026-05-01 11:04 | 40.71737 | 28.29239 | 13850 ft | 312 kts | 155° |
| 2026-05-01 11:04 | 40.69980 | 28.30925 | 13490 ft | 315 kts | 138° |
| 2026-05-01 11:04 | 40.68653 | 28.33224 | 13126 ft | 317 kts | 120° |
| 2026-05-01 11:04 | 40.67874 | 28.35971 | 12543 ft | 325 kts | 101° |
| 2026-05-01 11:05 | 40.67716 | 28.38905 | 12268 ft | 319 kts | 90° |
| 2026-05-01 11:05 | 40.67663 | 28.41812 | 11799 ft | 317 kts | 91° |
| 2026-05-01 11:05 | 40.67602 | 28.44697 | 11329 ft | 314 kts | 91° |
| 2026-05-01 11:05 | 40.67536 | 28.47552 | 10896 ft | 309 kts | 91° |
| 2026-05-01 11:06 | 40.67469 | 28.50344 | 10391 ft | 303 kts | 91° |
| 2026-05-01 11:06 | 40.67403 | 28.53087 | 9873 ft | 297 kts | 91° |
| 2026-05-01 11:06 | 40.67338 | 28.55777 | 9500 ft | 292 kts | 90° |
| 2026-05-01 11:07 | 40.67156 | 28.60994 | 9094 ft | 277 kts | 99° |
| 2026-05-01 11:07 | 40.66517 | 28.63334 | 9021 ft | 268 kts | 119° |
| 2026-05-01 11:07 | 40.65353 | 28.65218 | 9030 ft | 266 kts | 138° |
| 2026-05-01 11:07 | 40.63799 | 28.66540 | 9032 ft | 267 kts | 152° |
| 2026-05-01 11:08 | 40.62152 | 28.67681 | 9034 ft | 268 kts | 152° |
| 2026-05-01 11:08 | 40.60504 | 28.68822 | 9025 ft | 268 kts | 152° |
| 2026-05-01 11:08 | 40.57633 | 28.71820 | 9035 ft | 266 kts | 134° |
| 2026-05-01 11:09 | 40.56318 | 28.73540 | 9020 ft | 267 kts | 134° |
| 2026-05-01 11:09 | 40.55001 | 28.75254 | 9024 ft | 267 kts | 134° |
| 2026-05-01 11:09 | 40.53682 | 28.76970 | 9015 ft | 267 kts | 133° |
| 2026-05-01 11:10 | 40.51691 | 28.81039 | 9019 ft | 265 kts | 117° |
| 2026-05-01 11:10 | 40.50816 | 28.83174 | 9015 ft | 266 kts | 117° |
| 2026-05-01 11:10 | 40.49935 | 28.85312 | 9005 ft | 266 kts | 117° |
| 2026-05-01 11:10 | 40.49059 | 28.87492 | 9011 ft | 266 kts | 112° |
| 2026-05-01 11:11 | 40.48520 | 28.89803 | 9016 ft | 265 kts | 99° |
| 2026-05-01 11:11 | 40.48168 | 28.92147 | 9007 ft | 265 kts | 99° |
| 2026-05-01 11:11 | 40.47805 | 28.94519 | 9007 ft | 265 kts | 100° |
| 2026-05-01 11:11 | 40.47440 | 28.96893 | 9019 ft | 265 kts | 100° |
| 2026-05-01 11:12 | 40.47126 | 28.99279 | 9005 ft | 263 kts | 92° |
| 2026-05-01 11:12 | 40.47196 | 29.01605 | 9017 ft | 248 kts | 82° |
| 2026-05-01 11:12 | 40.47370 | 29.03833 | 9021 ft | 243 kts | 82° |
| 2026-05-01 11:12 | 40.47624 | 29.06018 | 9009 ft | 241 kts | 70° |
| 2026-05-01 11:13 | 40.48434 | 29.07917 | 9007 ft | 239 kts | 46° |
| 2026-05-01 11:13 | 40.49736 | 29.09222 | 8974 ft | 237 kts | 24° |
| 2026-05-01 11:13 | 40.51324 | 29.09750 | 8599 ft | 237 kts | 360° |
| 2026-05-01 11:13 | 40.52931 | 29.09423 | 8272 ft | 233 kts | 345° |
| 2026-05-01 11:14 | 40.54494 | 29.08894 | 7965 ft | 230 kts | 345° |
| 2026-05-01 11:14 | 40.56035 | 29.08385 | 7662 ft | 227 kts | 346° |
| 2026-05-01 11:14 | 40.57563 | 29.07882 | 7372 ft | 225 kts | 346° |
| 2026-05-01 11:14 | 40.59079 | 29.07386 | 7113 ft | 224 kts | 346° |
| 2026-05-01 11:15 | 40.60589 | 29.06892 | 6866 ft | 224 kts | 346° |
| 2026-05-01 11:15 | 40.62091 | 29.06398 | 6606 ft | 222 kts | 346° |
| 2026-05-01 11:15 | 40.63581 | 29.05908 | 6349 ft | 219 kts | 347° |
| 2026-05-01 11:15 | 40.65064 | 29.05427 | 6103 ft | 218 kts | 347° |
| 2026-05-01 11:16 | 40.66533 | 29.04949 | 5871 ft | 217 kts | 346° |
| 2026-05-01 11:16 | 40.68000 | 29.04464 | 5611 ft | 217 kts | 347° |
| 2026-05-01 11:16 | 40.69463 | 29.03983 | 5362 ft | 218 kts | 347° |
| 2026-05-01 11:16 | 40.70919 | 29.03508 | 5102 ft | 215 kts | 348° |
| 2026-05-01 11:17 | 40.72368 | 29.03031 | 4859 ft | 215 kts | 347° |
| 2026-05-01 11:17 | 40.73816 | 29.02547 | 4589 ft | 213 kts | 347° |
| 2026-05-01 11:17 | 40.75260 | 29.02108 | 4332 ft | 212 kts | 354° |
| 2026-05-01 11:17 | 40.76697 | 29.02345 | 4097 ft | 209 kts | 20° |
| 2026-05-01 11:18 | 40.77896 | 29.03401 | 3847 ft | 209 kts | 46° |
| 2026-05-01 11:18 | 40.78706 | 29.04962 | 3578 ft | 204 kts | 56° |
| 2026-05-01 11:18 | 40.79459 | 29.06535 | 3357 ft | 201 kts | 56° |
| 2026-05-01 11:18 | 40.80202 | 29.08076 | 3118 ft | 197 kts | 55° |
| 2026-05-01 11:19 | 40.80856 | 29.09640 | 3024 ft | 194 kts | 62° |
| 2026-05-01 11:19 | 40.81441 | 29.11223 | 3016 ft | 187 kts | 62° |
| 2026-05-01 11:19 | 40.82000 | 29.12729 | 3048 ft | 179 kts | 61° |
| 2026-05-01 11:19 | 40.82549 | 29.14211 | 2897 ft | 178 kts | 62° |
| 2026-05-01 11:20 | 40.83085 | 29.15660 | 2672 ft | 170 kts | 62° |
| 2026-05-01 11:20 | 40.83585 | 29.17010 | 2460 ft | 158 kts | 61° |
| 2026-05-01 11:20 | 40.84060 | 29.18293 | 2271 ft | 153 kts | 61° |
| 2026-05-01 11:20 | 40.84526 | 29.19549 | 2064 ft | 152 kts | 61° |
| 2026-05-01 11:21 | 40.84988 | 29.20791 | 1862 ft | 150 kts | 62° |
| 2026-05-01 11:21 | 40.85447 | 29.22034 | 1666 ft | 151 kts | 62° |
| 2026-05-01 11:21 | 40.85884 | 29.23218 | 1460 ft | 133 kts | 62° |
| 2026-05-01 11:21 | 40.86143 | 29.23919 | 1349 ft | 124 kts | 62° |
| 2026-05-01 11:22 | 40.86512 | 29.24918 | 1187 ft | 119 kts | 62° |
| 2026-05-01 11:22 | 40.86871 | 29.25888 | 1034 ft | 116 kts | 61° |
| 2026-05-01 11:22 | 40.87340 | 29.27160 | 838 ft | 116 kts | 62° |
| 2026-05-01 11:22 | 40.87578 | 29.27809 | 745 ft | 116 kts | 62° |
| 2026-05-01 11:23 | 40.87932 | 29.28772 | 564 ft | 117 kts | 62° |
| 2026-05-01 11:23 | 40.88295 | 29.29731 | 417 ft | 118 kts | 61° |
| 2026-05-01 11:23 | 40.88648 | 29.30706 | 286 ft | 112 kts | 65° |
| 2026-05-01 11:23 | 40.88932 | 29.31471 | 307 ft | 68 kts | 64° |
| 2026-05-01 11:24 | 40.89075 | 29.31859 | 310 ft | 38 kts | 64° |
| 2026-05-01 11:24 | 40.89180 | 29.32140 | 307 ft | 29 kts | 63° |
| 2026-05-01 11:24 | 40.89380 | 29.32444 | 309 ft | 20 kts | 39° |
| 2026-05-01 11:25 | 40.89452 | 29.32508 | 307 ft | 9 kts | 23° |
| 2026-05-01 11:25 | 40.89512 | 29.32372 | 308 ft | 10 kts | 326° |
| 2026-05-01 11:25 | 40.89572 | 29.32345 | 308 ft | 10 kts | 359° |
| 2026-05-01 11:26 | 40.89645 | 29.32313 | 308 ft | 13 kts | 333° |
| 2026-05-01 11:26 | 40.89832 | 29.32190 | 311 ft | 14 kts | 334° |
| 2026-05-01 11:26 | 40.89918 | 29.32135 | 313 ft | 14 kts | 334° |
| 2026-05-01 11:27 | 40.90007 | 29.32079 | 317 ft | 13 kts | 334° |
| 2026-05-01 11:27 | 40.90068 | 29.32054 | 321 ft | 8 kts | 11° |
| 2026-05-01 11:27 | 40.90114 | 29.32120 | 321 ft | 12 kts | 66° |
| 2026-05-01 11:27 | 40.90151 | 29.32235 | 319 ft | 15 kts | 62° |
| 2026-05-01 11:28 | 40.90206 | 29.32373 | 319 ft | 19 kts | 64° |
| 2026-05-01 11:28 | 40.90263 | 29.32525 | 319 ft | 14 kts | 63° |
| 2026-05-01 11:28 | 40.90302 | 29.32587 | 320 ft | 8 kts | 9° |
| 2026-05-01 11:29 | 40.90446 | 29.32509 | 319 ft | 15 kts | 333° |
| 2026-05-01 11:29 | 40.90544 | 29.32446 | 320 ft | 15 kts | 335° |
| 2026-05-01 11:29 | 40.90655 | 29.32313 | 321 ft | 9 kts | 336° |
| 2026-05-01 11:30 | 40.90719 | 29.32273 | 320 ft | 11 kts | 323° |
| 2026-05-01 11:30 | 40.90730 | 29.32202 | 321 ft | 9 kts | 248° |
| 2026-05-01 11:30 | 40.90719 | 29.32141 | 321 ft | 6 kts | 297° |
| 2026-05-01 11:30 | 40.90761 | 29.32109 | 321 ft | 8 kts | 335° |
| 2026-05-01 11:31 | 40.90821 | 29.32071 | 321 ft | 7 kts | 334° |
| 2026-05-01 11:31 | 40.90846 | 29.32012 | 321 ft | 5 kts | 293° |
| 2026-05-01 11:31 | 40.90871 | 29.31984 | 321 ft | 3 kts | 333° |
| 2026-05-01 11:31 | 40.90876 | 29.31955 | 319 ft | 3 kts | 258° |
| 2026-05-01 11:32 | 40.90868 | 29.31932 | 321 ft | 2 kts | 244° |
| 2026-05-01 11:32 | 40.90860 | 29.31913 | 321 ft | 2 kts | 244° |
| 2026-05-01 11:32 | 40.90859 | 29.31909 | 321 ft | 0 kts | 244° |